createdAt,value
2018-02-22T00:06:14.841Z,46.4
2018-02-22T00:23:01.070Z,46.0
2018-02-22T00:39:46.877Z,46.0
2018-02-22T00:56:33.313Z,45.2
2018-02-22T01:13:20.088Z,45.2
2018-02-22T01:30:05.939Z,45.2
2018-02-22T01:46:52.248Z,44.8
2018-02-22T02:03:38.500Z,44.8
2018-02-22T02:20:24.686Z,44.4
2018-02-22T02:37:10.541Z,44.4
2018-02-22T02:53:56.742Z,44.4
2018-02-22T03:10:42.983Z,44.4
2018-02-22T03:27:28.702Z,44.4
2018-02-22T03:44:15.767Z,43.6
2018-02-22T04:01:01.100Z,43.2
2018-02-22T04:17:46.697Z,43.2
2018-02-22T04:34:32.699Z,43.2
2018-02-22T04:51:18.142Z,43.2
2018-02-22T05:08:04.690Z,43.2
2018-02-22T05:24:50.594Z,43.2
2018-02-22T05:41:36.487Z,43.2
2018-02-22T05:58:22.312Z,43.2
2018-02-22T06:15:08.124Z,42.8
2018-02-22T06:31:54.409Z,42.8
2018-02-22T06:48:40.639Z,42.8
2018-02-22T07:05:27.414Z,42.4
2018-02-22T07:22:13.058Z,42.8
2018-02-22T07:39:00.218Z,42.8
2018-02-22T07:55:45.695Z,42.8
2018-02-22T08:12:31.817Z,42.8
2018-02-22T08:29:18.095Z,42.8
2018-02-22T08:46:05.046Z,42.8
2018-02-22T09:02:51.831Z,42.8
2018-02-22T09:19:38.811Z,42.8
2018-02-22T09:36:25.831Z,43.2
2018-02-22T09:53:12.422Z,43.2
2018-02-22T10:09:59.681Z,43.2
2018-02-22T10:26:47.481Z,43.2
2018-02-22T10:43:34.726Z,43.2
2018-02-22T11:00:23.309Z,43.2
2018-02-22T11:17:09.666Z,43.2
2018-02-22T11:33:57.481Z,42.8
2018-02-22T11:50:45.836Z,42.8
2018-02-22T12:07:33.870Z,42.8
2018-02-22T12:24:21.905Z,42.8
2018-02-22T12:41:10.485Z,43.2
2018-02-22T12:57:59.006Z,43.2
2018-02-22T13:14:47.215Z,43.2
2018-02-22T13:31:35.945Z,43.2
2018-02-22T13:48:26.105Z,43.6
2018-02-22T14:05:12.313Z,44.0
2018-02-22T14:22:01.306Z,44.0
2018-02-22T14:38:48.963Z,44.0
2018-02-22T14:55:37.555Z,44.0
2018-02-22T15:12:25.592Z,44.0
2018-02-22T15:29:13.729Z,44.4
2018-02-22T15:46:01.910Z,44.8
2018-02-22T16:02:49.108Z,44.8
2018-02-22T16:19:37.399Z,44.8
2018-02-22T16:36:24.399Z,44.4
2018-02-22T16:53:12.295Z,45.2
2018-02-22T17:09:59.984Z,45.2
2018-02-22T17:26:46.835Z,45.2
2018-02-22T17:43:34.226Z,45.2
2018-02-22T18:00:21.383Z,45.6
2018-02-22T18:17:09.607Z,45.2
2018-02-22T18:33:57.907Z,45.2
2018-02-22T18:50:45.408Z,45.2
2018-02-22T19:07:32.518Z,45.2
2018-02-22T19:24:19.888Z,45.6
2018-02-22T19:41:06.709Z,45.6
2018-02-22T19:57:54.024Z,45.6
2018-02-22T20:14:42.064Z,45.6
2018-02-22T20:31:27.811Z,45.6
2018-02-22T20:48:13.972Z,45.6
2018-02-22T21:05:00.914Z,45.6
2018-02-22T21:21:48.121Z,45.6
2018-02-22T21:38:34.292Z,45.6
2018-02-22T21:55:21.078Z,45.6
2018-02-22T22:12:07.442Z,45.6
2018-02-22T22:28:54.194Z,45.6
2018-02-22T22:45:40.950Z,45.6
2018-02-22T23:02:27.374Z,45.6
2018-02-22T23:19:13.958Z,45.6
2018-02-22T23:36:00.854Z,45.6
2018-02-22T23:52:46.924Z,45.2
